Terminal Aerodrome Forecast
Issued by NWS

Home | Current Version | Previous Version | Text Only | Print | Product List | Glossary On
Versions: 1 2 3 4 5 6 7 8 9 10 11 12 13 14
662
FTUS43 KUNR 260906 AAA
TAFGCC
TAF AMD
KGCC 260906Z 2609/2706 14008KT P6SM FEW100
      TEMPO 2609/2610 -TSRA BKN080CB
     FM261800 01012KT P6SM SCT080=

USA.gov is the U.S. government's official web portal to all federal, state and local government web resources and services.